sensor_id;sensor_type;location;lat;lon;timestamp;P1;durP1;ratioP1;P2;durP2;ratioP2
75628;SDS011;64213;46.452;16.994;2024-03-08T00:02:10;31.83;;;12.43;;
75628;SDS011;64213;46.452;16.994;2024-03-08T00:05:12;29.77;;;12.18;;
75628;SDS011;64213;46.452;16.994;2024-03-08T00:08:18;32.03;;;12.37;;
75628;SDS011;64213;46.452;16.994;2024-03-08T00:11:20;36.90;;;13.35;;
75628;SDS011;64213;46.452;16.994;2024-03-08T00:14:23;28.73;;;11.90;;
75628;SDS011;64213;46.452;16.994;2024-03-08T00:17:26;32.07;;;11.93;;
75628;SDS011;64213;46.452;16.994;2024-03-08T00:20:29;32.95;;;13.30;;
75628;SDS011;64213;46.452;16.994;2024-03-08T00:23:32;27.27;;;11.70;;
75628;SDS011;64213;46.452;16.994;2024-03-08T00:26:35;30.20;;;11.80;;
75628;SDS011;64213;46.452;16.994;2024-03-08T00:29:38;33.30;;;13.97;;
75628;SDS011;64213;46.452;16.994;2024-03-08T00:32:43;33.63;;;12.90;;
75628;SDS011;64213;46.452;16.994;2024-03-08T00:35:46;29.05;;;12.60;;
75628;SDS011;64213;46.452;16.994;2024-03-08T00:38:49;28.77;;;11.50;;
75628;SDS011;64213;46.452;16.994;2024-03-08T00:41:52;33.92;;;13.00;;
75628;SDS011;64213;46.452;16.994;2024-03-08T00:44:55;34.77;;;13.90;;
75628;SDS011;64213;46.452;16.994;2024-03-08T00:47:57;31.87;;;12.87;;
75628;SDS011;64213;46.452;16.994;2024-03-08T00:51:00;32.88;;;12.77;;
75628;SDS011;64213;46.452;16.994;2024-03-08T00:54:04;34.80;;;14.52;;
75628;SDS011;64213;46.452;16.994;2024-03-08T00:57:07;31.95;;;13.13;;
75628;SDS011;64213;46.452;16.994;2024-03-08T01:00:09;32.97;;;12.43;;
75628;SDS011;64213;46.452;16.994;2024-03-08T01:03:15;32.37;;;12.53;;
75628;SDS011;64213;46.452;16.994;2024-03-08T01:06:17;36.17;;;13.82;;
75628;SDS011;64213;46.452;16.994;2024-03-08T01:09:20;34.65;;;12.77;;
75628;SDS011;64213;46.452;16.994;2024-03-08T01:12:23;36.25;;;13.93;;
75628;SDS011;64213;46.452;16.994;2024-03-08T01:15:26;29.13;;;11.53;;
75628;SDS011;64213;46.452;16.994;2024-03-08T01:18:29;38.37;;;14.30;;
75628;SDS011;64213;46.452;16.994;2024-03-08T01:21:32;32.30;;;12.63;;
75628;SDS011;64213;46.452;16.994;2024-03-08T01:24:34;32.03;;;13.85;;
75628;SDS011;64213;46.452;16.994;2024-03-08T01:27:37;21.40;;;9.10;;
75628;SDS011;64213;46.452;16.994;2024-03-08T01:30:39;40.30;;;12.63;;
75628;SDS011;64213;46.452;16.994;2024-03-08T01:33:42;37.30;;;13.07;;
75628;SDS011;64213;46.452;16.994;2024-03-08T01:36:44;35.00;;;13.30;;
75628;SDS011;64213;46.452;16.994;2024-03-08T01:39:47;30.95;;;12.23;;
75628;SDS011;64213;46.452;16.994;2024-03-08T01:42:49;29.48;;;11.00;;
75628;SDS011;64213;46.452;16.994;2024-03-08T01:45:52;38.37;;;14.50;;
75628;SDS011;64213;46.452;16.994;2024-03-08T01:48:55;36.00;;;13.83;;
75628;SDS011;64213;46.452;16.994;2024-03-08T01:51:58;36.40;;;13.20;;
75628;SDS011;64213;46.452;16.994;2024-03-08T01:55:01;39.88;;;14.70;;
75628;SDS011;64213;46.452;16.994;2024-03-08T01:58:18;34.40;;;14.18;;
75628;SDS011;64213;46.452;16.994;2024-03-08T02:01:23;40.30;;;14.80;;
75628;SDS011;64213;46.452;16.994;2024-03-08T02:04:28;29.13;;;11.87;;
75628;SDS011;64213;46.452;16.994;2024-03-08T02:07:32;31.60;;;12.10;;
75628;SDS011;64213;46.452;16.994;2024-03-08T02:10:34;45.90;;;15.93;;
75628;SDS011;64213;46.452;16.994;2024-03-08T02:13:37;31.75;;;11.00;;
75628;SDS011;64213;46.452;16.994;2024-03-08T02:16:40;36.13;;;13.80;;
75628;SDS011;64213;46.452;16.994;2024-03-08T02:19:42;36.47;;;12.97;;
75628;SDS011;64213;46.452;16.994;2024-03-08T02:22:44;36.20;;;14.63;;
75628;SDS011;64213;46.452;16.994;2024-03-08T02:25:48;15.00;;;5.87;;
75628;SDS011;64213;46.452;16.994;2024-03-08T02:28:51;22.45;;;8.82;;
75628;SDS011;64213;46.452;16.994;2024-03-08T02:31:54;36.70;;;14.50;;
75628;SDS011;64213;46.452;16.994;2024-03-08T02:34:57;36.10;;;14.10;;
75628;SDS011;64213;46.452;16.994;2024-03-08T02:38:03;36.95;;;14.60;;
75628;SDS011;64213;46.452;16.994;2024-03-08T02:41:05;43.15;;;15.50;;
75628;SDS011;64213;46.452;16.994;2024-03-08T02:44:08;36.05;;;13.40;;
75628;SDS011;64213;46.452;16.994;2024-03-08T02:47:10;36.17;;;13.53;;
75628;SDS011;64213;46.452;16.994;2024-03-08T02:50:13;35.83;;;15.03;;
75628;SDS011;64213;46.452;16.994;2024-03-08T02:53:18;36.47;;;14.60;;
75628;SDS011;64213;46.452;16.994;2024-03-08T02:56:24;26.25;;;10.85;;
75628;SDS011;64213;46.452;16.994;2024-03-08T02:59:27;39.38;;;14.07;;
75628;SDS011;64213;46.452;16.994;2024-03-08T03:02:29;33.17;;;13.33;;
75628;SDS011;64213;46.452;16.994;2024-03-08T03:05:32;38.97;;;13.50;;
75628;SDS011;64213;46.452;16.994;2024-03-08T03:08:36;40.35;;;15.00;;
75628;SDS011;64213;46.452;16.994;2024-03-08T03:11:38;37.58;;;14.13;;
75628;SDS011;64213;46.452;16.994;2024-03-08T03:14:41;40.25;;;14.75;;
75628;SDS011;64213;46.452;16.994;2024-03-08T03:17:49;41.63;;;13.93;;
75628;SDS011;64213;46.452;16.994;2024-03-08T03:20:55;38.10;;;14.37;;
75628;SDS011;64213;46.452;16.994;2024-03-08T03:23:58;40.97;;;15.43;;
75628;SDS011;64213;46.452;16.994;2024-03-08T03:27:01;38.75;;;14.85;;
75628;SDS011;64213;46.452;16.994;2024-03-08T03:30:13;37.72;;;13.70;;
75628;SDS011;64213;46.452;16.994;2024-03-08T03:33:23;41.13;;;14.77;;
75628;SDS011;64213;46.452;16.994;2024-03-08T03:36:26;37.60;;;15.63;;
75628;SDS011;64213;46.452;16.994;2024-03-08T03:39:32;39.08;;;14.15;;
75628;SDS011;64213;46.452;16.994;2024-03-08T03:42:36;40.17;;;14.50;;
75628;SDS011;64213;46.452;16.994;2024-03-08T03:45:40;37.33;;;15.88;;
75628;SDS011;64213;46.452;16.994;2024-03-08T03:52:18;34.57;;;13.53;;
75628;SDS011;64213;46.452;16.994;2024-03-08T03:55:20;40.12;;;13.13;;
75628;SDS011;64213;46.452;16.994;2024-03-08T03:58:23;36.65;;;13.18;;
75628;SDS011;64213;46.452;16.994;2024-03-08T04:01:26;32.35;;;12.45;;
75628;SDS011;64213;46.452;16.994;2024-03-08T04:04:28;43.60;;;16.17;;
75628;SDS011;64213;46.452;16.994;2024-03-08T04:07:32;45.30;;;16.83;;
75628;SDS011;64213;46.452;16.994;2024-03-08T04:10:34;40.35;;;15.63;;
75628;SDS011;64213;46.452;16.994;2024-03-08T04:13:36;37.25;;;14.05;;
75628;SDS011;64213;46.452;16.994;2024-03-08T04:16:39;37.80;;;14.98;;
75628;SDS011;64213;46.452;16.994;2024-03-08T04:19:42;39.90;;;16.37;;
75628;SDS011;64213;46.452;16.994;2024-03-08T04:22:44;39.97;;;15.67;;
75628;SDS011;64213;46.452;16.994;2024-03-08T04:25:51;39.25;;;16.12;;
75628;SDS011;64213;46.452;16.994;2024-03-08T04:28:54;44.45;;;15.57;;
75628;SDS011;64213;46.452;16.994;2024-03-08T04:31:56;38.17;;;15.30;;
75628;SDS011;64213;46.452;16.994;2024-03-08T04:34:58;40.80;;;15.60;;
75628;SDS011;64213;46.452;16.994;2024-03-08T04:38:03;30.83;;;12.47;;
75628;SDS011;64213;46.452;16.994;2024-03-08T04:41:07;42.75;;;15.15;;
75628;SDS011;64213;46.452;16.994;2024-03-08T04:44:11;34.90;;;13.75;;
75628;SDS011;64213;46.452;16.994;2024-03-08T04:47:14;38.35;;;13.77;;
75628;SDS011;64213;46.452;16.994;2024-03-08T04:50:18;36.57;;;15.63;;
75628;SDS011;64213;46.452;16.994;2024-03-08T04:53:21;39.33;;;14.53;;
75628;SDS011;64213;46.452;16.994;2024-03-08T04:56:23;30.70;;;12.60;;
75628;SDS011;64213;46.452;16.994;2024-03-08T04:59:26;38.25;;;14.57;;
75628;SDS011;64213;46.452;16.994;2024-03-08T05:02:29;31.92;;;12.25;;
75628;SDS011;64213;46.452;16.994;2024-03-08T05:05:32;28.90;;;10.60;;
75628;SDS011;64213;46.452;16.994;2024-03-08T05:08:35;33.37;;;12.93;;
75628;SDS011;64213;46.452;16.994;2024-03-08T05:11:37;36.97;;;12.90;;
75628;SDS011;64213;46.452;16.994;2024-03-08T05:14:40;37.38;;;13.48;;
75628;SDS011;64213;46.452;16.994;2024-03-08T05:17:42;27.55;;;11.50;;
75628;SDS011;64213;46.452;16.994;2024-03-08T05:20:45;37.37;;;14.50;;
75628;SDS011;64213;46.452;16.994;2024-03-08T05:23:48;42.90;;;15.87;;
75628;SDS011;64213;46.452;16.994;2024-03-08T05:26:52;35.22;;;15.18;;
75628;SDS011;64213;46.452;16.994;2024-03-08T05:29:54;40.55;;;14.52;;
75628;SDS011;64213;46.452;16.994;2024-03-08T05:32:56;36.85;;;15.45;;
75628;SDS011;64213;46.452;16.994;2024-03-08T05:35:59;29.97;;;10.80;;
75628;SDS011;64213;46.452;16.994;2024-03-08T05:39:04;34.80;;;15.10;;
75628;SDS011;64213;46.452;16.994;2024-03-08T05:42:08;42.08;;;14.50;;
75628;SDS011;64213;46.452;16.994;2024-03-08T05:45:10;42.83;;;14.95;;
75628;SDS011;64213;46.452;16.994;2024-03-08T05:48:13;32.60;;;13.68;;
75628;SDS011;64213;46.452;16.994;2024-03-08T05:51:16;34.10;;;13.90;;
75628;SDS011;64213;46.452;16.994;2024-03-08T05:54:18;20.30;;;9.80;;
75628;SDS011;64213;46.452;16.994;2024-03-08T05:57:24;43.78;;;15.57;;
75628;SDS011;64213;46.452;16.994;2024-03-08T06:00:27;40.55;;;14.05;;
75628;SDS011;64213;46.452;16.994;2024-03-08T06:03:29;40.97;;;14.18;;
75628;SDS011;64213;46.452;16.994;2024-03-08T06:06:32;38.40;;;15.20;;
75628;SDS011;64213;46.452;16.994;2024-03-08T06:09:35;39.37;;;15.87;;
75628;SDS011;64213;46.452;16.994;2024-03-08T06:12:37;41.22;;;16.35;;
75628;SDS011;64213;46.452;16.994;2024-03-08T06:15:44;45.08;;;16.80;;
75628;SDS011;64213;46.452;16.994;2024-03-08T06:18:46;42.28;;;16.90;;
75628;SDS011;64213;46.452;16.994;2024-03-08T06:21:49;42.87;;;15.47;;
75628;SDS011;64213;46.452;16.994;2024-03-08T06:24:51;44.60;;;14.87;;
75628;SDS011;64213;46.452;16.994;2024-03-08T06:27:54;41.10;;;15.00;;
75628;SDS011;64213;46.452;16.994;2024-03-08T06:30:56;34.45;;;12.05;;
75628;SDS011;64213;46.452;16.994;2024-03-08T06:33:58;43.97;;;17.27;;
75628;SDS011;64213;46.452;16.994;2024-03-08T06:37:01;44.03;;;15.20;;
75628;SDS011;64213;46.452;16.994;2024-03-08T06:40:03;40.97;;;14.93;;
75628;SDS011;64213;46.452;16.994;2024-03-08T06:43:06;37.85;;;15.48;;
75628;SDS011;64213;46.452;16.994;2024-03-08T06:46:08;36.35;;;13.98;;
75628;SDS011;64213;46.452;16.994;2024-03-08T06:49:11;37.53;;;14.35;;
75628;SDS011;64213;46.452;16.994;2024-03-08T06:52:14;38.47;;;14.33;;
75628;SDS011;64213;46.452;16.994;2024-03-08T06:55:16;41.47;;;15.17;;
75628;SDS011;64213;46.452;16.994;2024-03-08T06:58:19;34.78;;;13.40;;
75628;SDS011;64213;46.452;16.994;2024-03-08T07:01:21;41.42;;;15.05;;
75628;SDS011;64213;46.452;16.994;2024-03-08T07:04:24;37.22;;;14.52;;
75628;SDS011;64213;46.452;16.994;2024-03-08T07:07:28;40.63;;;14.93;;
75628;SDS011;64213;46.452;16.994;2024-03-08T07:10:32;45.53;;;16.13;;
75628;SDS011;64213;46.452;16.994;2024-03-08T07:13:34;36.00;;;13.80;;
75628;SDS011;64213;46.452;16.994;2024-03-08T07:16:37;35.25;;;13.98;;
75628;SDS011;64213;46.452;16.994;2024-03-08T07:19:41;42.67;;;14.63;;
75628;SDS011;64213;46.452;16.994;2024-03-08T07:22:44;36.97;;;13.60;;
75628;SDS011;64213;46.452;16.994;2024-03-08T07:25:49;38.13;;;13.67;;
75628;SDS011;64213;46.452;16.994;2024-03-08T07:28:52;41.20;;;15.23;;
75628;SDS011;64213;46.452;16.994;2024-03-08T07:31:56;29.40;;;12.63;;
75628;SDS011;64213;46.452;16.994;2024-03-08T07:35:21;39.53;;;15.73;;
75628;SDS011;64213;46.452;16.994;2024-03-08T07:38:24;39.50;;;17.20;;
75628;SDS011;64213;46.452;16.994;2024-03-08T07:41:26;40.37;;;15.13;;
75628;SDS011;64213;46.452;16.994;2024-03-08T07:44:29;44.03;;;15.65;;
75628;SDS011;64213;46.452;16.994;2024-03-08T07:47:33;48.33;;;16.55;;
75628;SDS011;64213;46.452;16.994;2024-03-08T07:50:38;42.67;;;15.52;;
75628;SDS011;64213;46.452;16.994;2024-03-08T07:53:42;41.27;;;15.13;;
75628;SDS011;64213;46.452;16.994;2024-03-08T07:56:45;40.93;;;13.40;;
75628;SDS011;64213;46.452;16.994;2024-03-08T07:59:48;38.90;;;16.40;;
75628;SDS011;64213;46.452;16.994;2024-03-08T08:02:51;34.67;;;13.48;;
75628;SDS011;64213;46.452;16.994;2024-03-08T08:05:53;35.88;;;14.00;;
75628;SDS011;64213;46.452;16.994;2024-03-08T08:08:55;28.73;;;10.87;;
75628;SDS011;64213;46.452;16.994;2024-03-08T08:11:58;39.80;;;15.33;;
75628;SDS011;64213;46.452;16.994;2024-03-08T08:15:00;40.25;;;14.65;;
75628;SDS011;64213;46.452;16.994;2024-03-08T08:18:03;38.40;;;15.02;;
75628;SDS011;64213;46.452;16.994;2024-03-08T08:21:09;36.22;;;14.18;;
75628;SDS011;64213;46.452;16.994;2024-03-08T08:24:12;25.43;;;10.47;;
75628;SDS011;64213;46.452;16.994;2024-03-08T08:27:15;41.03;;;15.50;;
75628;SDS011;64213;46.452;16.994;2024-03-08T08:30:17;39.90;;;11.75;;
75628;SDS011;64213;46.452;16.994;2024-03-08T08:33:20;36.58;;;13.65;;
75628;SDS011;64213;46.452;16.994;2024-03-08T08:36:22;42.97;;;14.77;;
75628;SDS011;64213;46.452;16.994;2024-03-08T08:39:24;30.07;;;11.93;;
75628;SDS011;64213;46.452;16.994;2024-03-08T08:42:27;38.20;;;13.07;;
75628;SDS011;64213;46.452;16.994;2024-03-08T08:45:31;33.53;;;13.65;;
75628;SDS011;64213;46.452;16.994;2024-03-08T08:48:33;34.58;;;12.90;;
75628;SDS011;64213;46.452;16.994;2024-03-08T08:51:36;32.45;;;12.75;;
75628;SDS011;64213;46.452;16.994;2024-03-08T08:54:39;28.77;;;11.93;;
75628;SDS011;64213;46.452;16.994;2024-03-08T08:57:41;37.37;;;12.50;;
75628;SDS011;64213;46.452;16.994;2024-03-08T09:00:44;27.98;;;11.85;;
75628;SDS011;64213;46.452;16.994;2024-03-08T09:03:46;41.97;;;12.95;;
75628;SDS011;64213;46.452;16.994;2024-03-08T09:06:49;24.15;;;10.82;;
75628;SDS011;64213;46.452;16.994;2024-03-08T09:09:51;27.93;;;10.73;;
75628;SDS011;64213;46.452;16.994;2024-03-08T09:12:58;26.27;;;10.07;;
75628;SDS011;64213;46.452;16.994;2024-03-08T09:16:02;30.77;;;11.95;;
75628;SDS011;64213;46.452;16.994;2024-03-08T09:19:07;30.52;;;11.02;;
75628;SDS011;64213;46.452;16.994;2024-03-08T09:22:09;27.80;;;10.30;;
75628;SDS011;64213;46.452;16.994;2024-03-08T09:25:13;23.00;;;8.77;;
75628;SDS011;64213;46.452;16.994;2024-03-08T09:28:35;28.43;;;11.07;;
75628;SDS011;64213;46.452;16.994;2024-03-08T09:31:37;31.40;;;11.40;;
75628;SDS011;64213;46.452;16.994;2024-03-08T09:34:40;32.25;;;12.43;;
75628;SDS011;64213;46.452;16.994;2024-03-08T09:37:44;28.40;;;10.70;;
75628;SDS011;64213;46.452;16.994;2024-03-08T09:40:46;24.40;;;10.00;;
75628;SDS011;64213;46.452;16.994;2024-03-08T09:43:50;27.03;;;10.93;;
75628;SDS011;64213;46.452;16.994;2024-03-08T09:46:53;29.52;;;10.75;;
75628;SDS011;64213;46.452;16.994;2024-03-08T09:49:55;36.03;;;12.18;;
75628;SDS011;64213;46.452;16.994;2024-03-08T09:52:58;25.40;;;9.38;;
75628;SDS011;64213;46.452;16.994;2024-03-08T09:56:00;23.63;;;9.03;;
75628;SDS011;64213;46.452;16.994;2024-03-08T09:59:05;28.00;;;10.40;;
75628;SDS011;64213;46.452;16.994;2024-03-08T10:02:27;27.67;;;10.02;;
75628;SDS011;64213;46.452;16.994;2024-03-08T10:05:30;28.35;;;9.63;;
75628;SDS011;64213;46.452;16.994;2024-03-08T10:08:35;25.10;;;8.75;;
75628;SDS011;64213;46.452;16.994;2024-03-08T10:11:39;25.37;;;10.90;;
75628;SDS011;64213;46.452;16.994;2024-03-08T10:14:42;33.33;;;11.90;;
75628;SDS011;64213;46.452;16.994;2024-03-08T10:17:45;27.15;;;11.57;;
75628;SDS011;64213;46.452;16.994;2024-03-08T10:21:04;22.55;;;8.63;;
75628;SDS011;64213;46.452;16.994;2024-03-08T10:24:10;32.60;;;12.98;;
75628;SDS011;64213;46.452;16.994;2024-03-08T10:27:13;27.83;;;11.00;;
75628;SDS011;64213;46.452;16.994;2024-03-08T10:30:16;26.70;;;9.50;;
75628;SDS011;64213;46.452;16.994;2024-03-08T10:33:23;26.70;;;10.13;;
75628;SDS011;64213;46.452;16.994;2024-03-08T10:36:27;26.90;;;10.25;;
75628;SDS011;64213;46.452;16.994;2024-03-08T10:39:34;22.33;;;8.82;;
75628;SDS011;64213;46.452;16.994;2024-03-08T10:42:46;25.73;;;8.90;;
75628;SDS011;64213;46.452;16.994;2024-03-08T10:45:56;23.83;;;9.53;;
75628;SDS011;64213;46.452;16.994;2024-03-08T10:49:12;20.92;;;8.45;;
75628;SDS011;64213;46.452;16.994;2024-03-08T10:52:20;19.40;;;8.20;;
75628;SDS011;64213;46.452;16.994;2024-03-08T10:55:26;20.95;;;8.20;;
75628;SDS011;64213;46.452;16.994;2024-03-08T10:58:31;21.60;;;8.00;;
75628;SDS011;64213;46.452;16.994;2024-03-08T11:01:34;20.87;;;7.13;;
75628;SDS011;64213;46.452;16.994;2024-03-08T11:04:37;20.37;;;7.10;;
75628;SDS011;64213;46.452;16.994;2024-03-08T11:07:42;21.10;;;7.95;;
75628;SDS011;64213;46.452;16.994;2024-03-08T11:10:48;19.77;;;7.43;;
75628;SDS011;64213;46.452;16.994;2024-03-08T11:13:56;18.83;;;7.07;;
75628;SDS011;64213;46.452;16.994;2024-03-08T11:17:00;17.03;;;6.33;;
75628;SDS011;64213;46.452;16.994;2024-03-08T11:20:12;18.65;;;7.60;;
75628;SDS011;64213;46.452;16.994;2024-03-08T11:23:20;17.60;;;7.37;;
75628;SDS011;64213;46.452;16.994;2024-03-08T11:26:25;20.33;;;7.82;;
75628;SDS011;64213;46.452;16.994;2024-03-08T11:32:29;20.13;;;7.63;;
75628;SDS011;64213;46.452;16.994;2024-03-08T11:35:32;18.30;;;7.70;;
75628;SDS011;64213;46.452;16.994;2024-03-08T11:38:36;14.75;;;6.60;;
75628;SDS011;64213;46.452;16.994;2024-03-08T11:41:42;18.80;;;7.05;;
75628;SDS011;64213;46.452;16.994;2024-03-08T11:44:47;17.00;;;8.13;;
75628;SDS011;64213;46.452;16.994;2024-03-08T11:47:50;17.63;;;6.53;;
75628;SDS011;64213;46.452;16.994;2024-03-08T11:50:59;19.10;;;7.05;;
75628;SDS011;64213;46.452;16.994;2024-03-08T11:54:04;22.52;;;8.77;;
75628;SDS011;64213;46.452;16.994;2024-03-08T11:57:07;20.00;;;8.75;;
75628;SDS011;64213;46.452;16.994;2024-03-08T12:00:15;21.93;;;9.10;;
75628;SDS011;64213;46.452;16.994;2024-03-08T12:03:28;17.73;;;6.77;;
75628;SDS011;64213;46.452;16.994;2024-03-08T12:06:40;14.90;;;5.53;;
75628;SDS011;64213;46.452;16.994;2024-03-08T12:09:43;17.77;;;7.30;;
75628;SDS011;64213;46.452;16.994;2024-03-08T12:12:50;21.20;;;8.35;;
75628;SDS011;64213;46.452;16.994;2024-03-08T12:15:58;20.00;;;7.93;;
75628;SDS011;64213;46.452;16.994;2024-03-08T12:19:00;12.00;;;4.23;;
75628;SDS011;64213;46.452;16.994;2024-03-08T12:22:09;24.90;;;7.18;;
75628;SDS011;64213;46.452;16.994;2024-03-08T12:25:13;21.83;;;8.30;;
75628;SDS011;64213;46.452;16.994;2024-03-08T12:28:16;20.52;;;8.13;;
75628;SDS011;64213;46.452;16.994;2024-03-08T12:31:21;20.97;;;8.10;;
75628;SDS011;64213;46.452;16.994;2024-03-08T12:34:24;14.80;;;5.53;;
75628;SDS011;64213;46.452;16.994;2024-03-08T12:37:27;20.08;;;8.23;;
75628;SDS011;64213;46.452;16.994;2024-03-08T12:40:31;17.50;;;7.50;;
75628;SDS011;64213;46.452;16.994;2024-03-08T12:43:36;13.98;;;5.57;;
75628;SDS011;64213;46.452;16.994;2024-03-08T12:46:39;17.40;;;6.67;;
75628;SDS011;64213;46.452;16.994;2024-03-08T12:49:47;17.83;;;7.00;;
75628;SDS011;64213;46.452;16.994;2024-03-08T12:52:50;18.62;;;7.68;;
75628;SDS011;64213;46.452;16.994;2024-03-08T12:55:55;21.12;;;8.70;;
75628;SDS011;64213;46.452;16.994;2024-03-08T12:58:58;19.15;;;7.70;;
75628;SDS011;64213;46.452;16.994;2024-03-08T13:02:02;18.43;;;7.70;;
75628;SDS011;64213;46.452;16.994;2024-03-08T13:05:04;17.70;;;7.13;;
75628;SDS011;64213;46.452;16.994;2024-03-08T13:08:08;16.98;;;6.85;;
75628;SDS011;64213;46.452;16.994;2024-03-08T13:11:14;16.67;;;6.97;;
75628;SDS011;64213;46.452;16.994;2024-03-08T13:14:17;17.75;;;7.18;;
75628;SDS011;64213;46.452;16.994;2024-03-08T13:17:20;17.77;;;7.53;;
75628;SDS011;64213;46.452;16.994;2024-03-08T13:20:22;16.03;;;6.03;;
75628;SDS011;64213;46.452;16.994;2024-03-08T13:23:34;16.05;;;6.75;;
75628;SDS011;64213;46.452;16.994;2024-03-08T13:26:57;20.55;;;6.85;;
75628;SDS011;64213;46.452;16.994;2024-03-08T13:30:01;16.17;;;7.00;;
75628;SDS011;64213;46.452;16.994;2024-03-08T13:33:04;17.07;;;7.00;;
75628;SDS011;64213;46.452;16.994;2024-03-08T13:36:07;21.90;;;7.63;;
75628;SDS011;64213;46.452;16.994;2024-03-08T13:39:17;17.75;;;7.32;;
75628;SDS011;64213;46.452;16.994;2024-03-08T13:42:22;17.92;;;7.53;;
75628;SDS011;64213;46.452;16.994;2024-03-08T13:45:25;18.45;;;7.78;;
75628;SDS011;64213;46.452;16.994;2024-03-08T13:48:27;15.95;;;7.45;;
75628;SDS011;64213;46.452;16.994;2024-03-08T13:51:29;17.83;;;7.87;;
75628;SDS011;64213;46.452;16.994;2024-03-08T13:54:32;18.60;;;7.87;;
75628;SDS011;64213;46.452;16.994;2024-03-08T13:57:34;16.23;;;7.53;;
75628;SDS011;64213;46.452;16.994;2024-03-08T14:00:37;18.37;;;7.50;;
75628;SDS011;64213;46.452;16.994;2024-03-08T14:03:39;14.75;;;7.70;;
75628;SDS011;64213;46.452;16.994;2024-03-08T14:06:44;16.83;;;7.23;;
75628;SDS011;64213;46.452;16.994;2024-03-08T14:09:47;19.67;;;7.72;;
75628;SDS011;64213;46.452;16.994;2024-03-08T14:12:50;16.85;;;8.23;;
75628;SDS011;64213;46.452;16.994;2024-03-08T14:15:52;16.67;;;7.12;;
75628;SDS011;64213;46.452;16.994;2024-03-08T14:18:55;17.98;;;8.35;;
75628;SDS011;64213;46.452;16.994;2024-03-08T14:21:57;18.47;;;8.57;;
75628;SDS011;64213;46.452;16.994;2024-03-08T14:25:00;19.35;;;8.70;;
75628;SDS011;64213;46.452;16.994;2024-03-08T14:28:07;16.80;;;7.78;;
75628;SDS011;64213;46.452;16.994;2024-03-08T14:31:09;17.98;;;7.70;;
75628;SDS011;64213;46.452;16.994;2024-03-08T14:34:13;15.93;;;6.70;;
75628;SDS011;64213;46.452;16.994;2024-03-08T14:37:16;17.83;;;7.17;;
75628;SDS011;64213;46.452;16.994;2024-03-08T14:40:20;17.83;;;6.97;;
75628;SDS011;64213;46.452;16.994;2024-03-08T14:43:24;17.05;;;6.53;;
75628;SDS011;64213;46.452;16.994;2024-03-08T14:46:28;15.25;;;6.40;;
75628;SDS011;64213;46.452;16.994;2024-03-08T14:49:31;19.13;;;7.17;;
75628;SDS011;64213;46.452;16.994;2024-03-08T14:52:34;15.57;;;7.13;;
75628;SDS011;64213;46.452;16.994;2024-03-08T14:55:37;17.10;;;7.20;;
75628;SDS011;64213;46.452;16.994;2024-03-08T14:58:40;20.50;;;7.87;;
75628;SDS011;64213;46.452;16.994;2024-03-08T15:01:43;18.55;;;6.57;;
75628;SDS011;64213;46.452;16.994;2024-03-08T15:04:47;16.40;;;6.17;;
75628;SDS011;64213;46.452;16.994;2024-03-08T15:07:59;16.30;;;6.40;;
75628;SDS011;64213;46.452;16.994;2024-03-08T15:11:03;17.12;;;6.68;;
75628;SDS011;64213;46.452;16.994;2024-03-08T15:14:09;16.37;;;7.05;;
75628;SDS011;64213;46.452;16.994;2024-03-08T15:17:13;18.40;;;7.22;;
75628;SDS011;64213;46.452;16.994;2024-03-08T15:20:24;16.43;;;7.03;;
75628;SDS011;64213;46.452;16.994;2024-03-08T15:23:35;16.53;;;6.70;;
75628;SDS011;64213;46.452;16.994;2024-03-08T15:26:38;16.00;;;6.43;;
75628;SDS011;64213;46.452;16.994;2024-03-08T15:29:40;17.30;;;7.22;;
75628;SDS011;64213;46.452;16.994;2024-03-08T15:32:45;16.70;;;6.35;;
75628;SDS011;64213;46.452;16.994;2024-03-08T15:36:08;15.83;;;6.53;;
75628;SDS011;64213;46.452;16.994;2024-03-08T15:39:13;16.07;;;6.63;;
75628;SDS011;64213;46.452;16.994;2024-03-08T15:42:16;18.40;;;7.20;;
75628;SDS011;64213;46.452;16.994;2024-03-08T15:45:19;17.98;;;6.55;;
75628;SDS011;64213;46.452;16.994;2024-03-08T15:48:22;17.80;;;6.87;;
75628;SDS011;64213;46.452;16.994;2024-03-08T15:51:24;17.97;;;7.03;;
75628;SDS011;64213;46.452;16.994;2024-03-08T15:54:26;22.33;;;8.20;;
75628;SDS011;64213;46.452;16.994;2024-03-08T15:57:29;20.10;;;8.18;;
75628;SDS011;64213;46.452;16.994;2024-03-08T16:00:31;18.17;;;7.50;;
75628;SDS011;64213;46.452;16.994;2024-03-08T16:03:37;19.45;;;7.72;;
75628;SDS011;64213;46.452;16.994;2024-03-08T16:06:39;16.27;;;6.47;;
75628;SDS011;64213;46.452;16.994;2024-03-08T16:09:42;18.63;;;7.03;;
75628;SDS011;64213;46.452;16.994;2024-03-08T16:12:45;17.30;;;6.95;;
75628;SDS011;64213;46.452;16.994;2024-03-08T16:15:47;15.93;;;6.45;;
75628;SDS011;64213;46.452;16.994;2024-03-08T16:18:53;18.75;;;6.75;;
75628;SDS011;64213;46.452;16.994;2024-03-08T16:21:55;15.80;;;6.53;;
75628;SDS011;64213;46.452;16.994;2024-03-08T16:24:59;17.10;;;6.77;;
75628;SDS011;64213;46.452;16.994;2024-03-08T16:28:02;18.87;;;8.20;;
75628;SDS011;64213;46.452;16.994;2024-03-08T16:31:04;19.92;;;8.32;;
75628;SDS011;64213;46.452;16.994;2024-03-08T16:34:09;19.58;;;7.30;;
75628;SDS011;64213;46.452;16.994;2024-03-08T16:37:12;21.27;;;7.87;;
75628;SDS011;64213;46.452;16.994;2024-03-08T16:40:14;20.27;;;8.30;;
75628;SDS011;64213;46.452;16.994;2024-03-08T16:43:20;19.95;;;7.43;;
75628;SDS011;64213;46.452;16.994;2024-03-08T16:46:23;21.80;;;8.50;;
75628;SDS011;64213;46.452;16.994;2024-03-08T16:49:28;22.33;;;8.60;;
75628;SDS011;64213;46.452;16.994;2024-03-08T16:52:32;20.23;;;7.93;;
75628;SDS011;64213;46.452;16.994;2024-03-08T16:55:35;21.53;;;8.53;;
75628;SDS011;64213;46.452;16.994;2024-03-08T16:58:38;22.87;;;10.00;;
75628;SDS011;64213;46.452;16.994;2024-03-08T17:01:44;23.02;;;9.25;;
75628;SDS011;64213;46.452;16.994;2024-03-08T17:04:48;23.23;;;8.93;;
75628;SDS011;64213;46.452;16.994;2024-03-08T17:07:53;22.20;;;9.00;;
75628;SDS011;64213;46.452;16.994;2024-03-08T17:11:00;23.20;;;9.07;;
75628;SDS011;64213;46.452;16.994;2024-03-08T17:14:03;25.20;;;9.75;;
75628;SDS011;64213;46.452;16.994;2024-03-08T17:17:07;24.30;;;10.75;;
75628;SDS011;64213;46.452;16.994;2024-03-08T17:20:09;23.35;;;9.48;;
75628;SDS011;64213;46.452;16.994;2024-03-08T17:23:22;21.67;;;9.30;;
75628;SDS011;64213;46.452;16.994;2024-03-08T17:26:24;23.10;;;9.57;;
75628;SDS011;64213;46.452;16.994;2024-03-08T17:29:27;21.67;;;8.82;;
75628;SDS011;64213;46.452;16.994;2024-03-08T17:32:30;30.23;;;11.32;;
75628;SDS011;64213;46.452;16.994;2024-03-08T17:35:35;22.05;;;9.05;;
75628;SDS011;64213;46.452;16.994;2024-03-08T17:38:40;27.63;;;12.20;;
75628;SDS011;64213;46.452;16.994;2024-03-08T17:41:50;25.07;;;9.37;;
75628;SDS011;64213;46.452;16.994;2024-03-08T17:44:53;30.15;;;8.75;;
75628;SDS011;64213;46.452;16.994;2024-03-08T17:47:57;19.80;;;8.18;;
75628;SDS011;64213;46.452;16.994;2024-03-08T17:51:03;23.40;;;9.02;;
75628;SDS011;64213;46.452;16.994;2024-03-08T17:54:10;20.53;;;8.40;;